Lake Elsinore, CA (92530)

4:02 PM PST on February 12, 2016 (GMT -0800)
The Grove | | Change Station
CLOSE
Current Station
Personal Weather Station
Location: Lake Elsinore, CA
Elevation: 1358 ft
Nearby Weather Stations

Elev 1358 ft 33.70 °N, 117.34 °W | Updated 10 minutes ago

Clear
Clear
86.0 °F
Feels Like 83 °F
N
3.7
Wind Variable Wind from WSW

Today
High -- | Low -- °F
--% Chance of Precip.
Yesterday
High -- | Low -- °F
Precip. -- in
Pressure 30.06 in
Visibility 10.0 miles
Clouds Clear
Heat Index 83 °F
Dew Point 31 °F
Humidity 14%
Rainfall 0.00 in
Snow Depth Not available.
6:36 AM 5:30 PM
Waxing Crescent, 25% visible
METAR KF70 122355Z AUTO 23005KT 10SM CLR 27/M05 A3006 RMK AO1
Pressure 30.06 in
Visibility 10.0 miles
Clouds Clear
Heat Index 83 °F
Dew Point 31 °F
Humidity 14%
Rainfall 0.00 in
Snow Depth Not available.
6:36 AM 5:30 PM
Waxing Crescent, 25% visible
METAR KF70 122355Z AUTO 23005KT 10SM CLR 27/M05 A3006 RMK AO1

10-Day Weather Forecast

Almanac

Astronomy

Feb. 12, 2016 Rise Set
Actual Time
Civil Twilight
Nautical Twilight
Astronomical Twilight
Moon
Length of Visible Light
Length of Day
Tomorrow will be .
, % of the Moon is Illuminated

Today's Extremes

State Highs State Lows

Community

WunderPhotos

Upload Photos

1,892,437 photos uploaded!

WunderBlog® & News

Nearby

Air Quality

  Air Quality AQ Index Pollutant
Not available.

Snow Depth

Station Depth Elevation

Earthquake Activity

City Distance Mag. Time & Date
Minimum magnitude displayed is 2.5.

Coastal Water Temperatures

Place Temperature

Stations

Nearby Weather Stations

Station Location Temp. Windchill Dew Point Humidity Wind Precip. Elev Updated Type
                   

Watches & Warnings

There are currently no watches in effect.